Forestville, Maryland
Current Conditions -  °F | °C
As of 5:58 AM on Friday 28 Nov 2014 (Local Time) from KADW Reporting Station
Clear Clear  
Wind Chill: 24°   Ceiling: Unl
Heat Index: 32°   Visibility: 10mi
Dew Point: 21°   Wind: 9mph
Humidity: 63%   Direction: 290°WNW
Pressure: 30.23"   Gusts: NA
Location:  38.84°N, 76.89°W
Report Text: KADW 281058Z AUTO 29008KT 10SM CLR 00/M06 A3023 RMK AO2 SLP246 T00011063 $
Loading
Personal Weather Stations






























Interactive Weather Map New forecast layout! Learn more

10-Day Weather Forecast

Advertisements
Track Severe Weather on mobile